Weather at Logovardi Sport Aerodrome

Public forecast

Using degrees Celsius for public forecast. Weather courtesy of forecast.io.

Closest aviation weather report (METAR) to Logovardi Sport Aerodrome

Closest report is Ohrid St. Paul the Apostle Airport, 32.4 nm (60.1 km) WNW. Retrieved 2022/01/17 16:30 UTC (4 minutes ago):

LWOH 171630Z 28003KT 9999 BKN040 02/M01 Q1019

Closest aviation forecast (TAF) to Logovardi Sport Aerodrome

Closest forecast is Ohrid St. Paul the Apostle Airport, 32.4 nm (60.1 km) WNW. Retrieved 2022/01/17 15:30 UTC (1 hour ago):

TAF LWOH 171430Z 1715/1815 32006KT 9999 BKN050 TEMPO 1715/1717 -RA TEMPO 1720/1802 5000 -SN OVC035